ROMMA est une association bénévole à but non lucratif. Votre soutien est indispensable : ADHERER à ROMMA ou FAIRE un DON

Montélimar - (26, Drôme)

Basse vallée du Rhône (88 m)   Longitude: 04° 45' E   Latitude: 44° 32' N Station partenaire n°164
 

Détail journalier du     <<     >>

Température Precipitation Humidité Pression Vent Dir Rafale Dir. rafale Ensol.
Heure (°C) (mm) (%) (hPa) (km/h) (km/h) (min)
01:00 13.407310181---23NNO0
02:00 13.1074101800---0
03:00 12.7075101700---0
04:00 11.4081101700---0
05:00 12.007910162---18N0
06:00 11.5081101610NNO29N0
07:00 11.4081101610NO29NNO0
08:00 11.508010165---23NNO9
09:00 12.7077101611N27NE60
10:00 14.4071101611N29NE60
11:00 16.0062101613N35NNO60
12:00 17.6055101516N34N60
13:00 19.1045101414N35N54
14:00 20.1044101410N26N22
15:00 20.3044101310NE24N17
16:00 20.604210137NE24NE0
17:00 20.704210125NE19N0
18:00 20.404210122---16NE0
19:00 19.704510122---16N0
20:00 18.904710121---15NO0
21:00 18.3049101208N0
22:00 17.8052101300---0
23:00 16.9055101300---0
minuit 15.8060101300---0

Graphique du 09-09-2019

 

Serveur OMMA